createdAt,value
2022-09-27T00:01:12.195Z,99062.97
2022-09-27T00:03:40.050Z,99056.22
2022-09-27T00:06:20.419Z,99047.34
2022-09-27T00:08:47.387Z,99048.59
2022-09-27T00:11:36.244Z,99043.88
2022-09-27T00:14:05.431Z,99043.84
2022-09-27T00:16:37.771Z,99031.34
2022-09-27T00:19:22.575Z,99039.88
2022-09-27T00:21:50.325Z,99032.25
2022-09-27T00:24:22.779Z,99031.38
2022-09-27T00:26:50.488Z,99016.59
2022-09-27T00:29:19.520Z,99016.69
2022-09-27T00:31:47.265Z,99016.75
2022-09-27T00:34:23.312Z,99022.53
2022-09-27T00:36:50.931Z,99013.91
2022-09-27T00:39:18.947Z,99018.50
2022-09-27T00:41:46.683Z,99013.00
2022-09-27T00:44:25.977Z,99016.03
2022-09-27T00:47:06.058Z,99009.31
2022-09-27T00:49:54.844Z,98999.91
2022-09-27T00:52:46.978Z,98996.31
2022-09-27T00:55:28.223Z,98992.31
2022-09-27T00:57:56.475Z,98993.34
2022-09-27T01:00:23.526Z,98987.09
2022-09-27T01:02:55.716Z,98991.44
2022-09-27T01:05:28.210Z,98985.88
2022-09-27T01:07:56.803Z,98975.94
2022-09-27T01:10:26.802Z,98978.19
2022-09-27T01:13:22.583Z,98975.59
2022-09-27T01:16:23.518Z,98970.63
2022-09-27T01:19:16.852Z,98964.16
2022-09-27T01:22:05.541Z,98959.88
2022-09-27T01:25:16.539Z,98960.53
2022-09-27T01:28:47.853Z,98958.97
2022-09-27T01:31:37.110Z,98950.59
2022-09-27T01:34:27.565Z,98941.41
2022-09-27T01:37:22.453Z,98942.31
2022-09-27T01:40:32.928Z,98947.91
2022-09-27T01:43:44.105Z,98939.38
2022-09-27T01:46:28.557Z,98934.81
2022-09-27T01:49:00.415Z,98925.84
2022-09-27T01:52:02.797Z,98930.88
2022-09-27T01:54:44.165Z,98928.81
2022-09-27T01:57:16.963Z,98925.56
2022-09-27T01:59:56.105Z,98927.44
2022-09-27T02:02:27.597Z,98918.97
2022-09-27T02:05:01.158Z,98916.34
2022-09-27T02:08:05.402Z,98907.56
2022-09-27T02:10:41.539Z,98905.72
2022-09-27T02:13:22.546Z,98905.56
2022-09-27T02:16:27.288Z,98894.72
2022-09-27T02:19:22.127Z,98896.63
2022-09-27T02:22:07.219Z,98883.06
2022-09-27T02:25:05.583Z,98885.13
2022-09-27T02:28:00.460Z,98873.75
2022-09-27T02:30:27.644Z,98876.69
2022-09-27T02:32:55.011Z,98866.47
2022-09-27T02:35:34.214Z,98867.94
2022-09-27T02:38:03.856Z,98870.25
2022-09-27T02:40:36.361Z,98870.19
2022-09-27T02:43:05.722Z,98865.59
2022-09-27T02:45:54.090Z,98854.81
2022-09-27T02:48:38.621Z,98844.53
2022-09-27T02:52:06.934Z,98856.03
2022-09-27T02:55:19.347Z,98855.22
2022-09-27T02:58:38.025Z,98847.25
2022-09-27T03:01:45.289Z,98842.53
2022-09-27T03:04:34.488Z,98842.91
2022-09-27T03:07:02.457Z,98834.03
2022-09-27T03:09:48.194Z,98835.38
2022-09-27T03:12:22.436Z,98835.28
2022-09-27T03:14:49.974Z,98828.88
2022-09-27T03:17:17.122Z,98825.94
2022-09-27T03:19:44.206Z,98821.75
2022-09-27T03:22:11.323Z,98818.63
2022-09-27T03:24:38.303Z,98827.41
2022-09-27T03:27:06.585Z,98818.56
2022-09-27T03:29:33.697Z,98814.88
2022-09-27T03:32:00.850Z,98813.81
2022-09-27T03:34:28.247Z,98814.03
2022-09-27T03:36:55.433Z,98806.13
2022-09-27T03:39:22.592Z,98807.28
2022-09-27T03:41:52.158Z,98810.31
2022-09-27T03:44:19.245Z,98808.56
2022-09-27T03:46:46.545Z,98801.53
2022-09-27T03:49:13.585Z,98801.31
2022-09-27T03:51:41.556Z,98799.63
2022-09-27T03:54:09.482Z,98805.84
2022-09-27T03:56:36.497Z,98802.53
2022-09-27T03:59:03.712Z,98791.94
2022-09-27T04:01:31.091Z,98794.91
2022-09-27T04:03:58.239Z,98791.81
2022-09-27T04:06:25.513Z,98795.31
2022-09-27T04:08:52.896Z,98791.63
2022-09-27T04:11:20.135Z,98794.59
2022-09-27T04:13:49.171Z,98798.88
2022-09-27T04:16:16.669Z,98792.34
2022-09-27T04:18:44.009Z,98790.19
2022-09-27T04:21:11.097Z,98783.94
2022-09-27T04:23:38.313Z,98784.69
2022-09-27T04:26:08.593Z,98782.88
2022-09-27T04:28:35.653Z,98785.16
2022-09-27T04:31:02.841Z,98779.94
2022-09-27T04:33:29.932Z,98777.91
2022-09-27T04:36:15.730Z,98784.34
2022-09-27T04:38:42.711Z,98778.94
2022-09-27T04:41:10.430Z,98781.03
2022-09-27T04:43:37.411Z,98776.44
2022-09-27T04:46:04.606Z,98781.56
2022-09-27T04:48:32.041Z,98779.75
2022-09-27T04:51:02.400Z,98786.50
2022-09-27T04:53:30.136Z,98785.09
2022-09-27T04:55:57.922Z,98786.09
2022-09-27T04:58:26.021Z,98778.53
2022-09-27T05:00:54.146Z,98781.34
2022-09-27T05:03:22.005Z,98791.16
2022-09-27T05:05:49.113Z,98777.75
2022-09-27T05:08:16.253Z,98778.06
2022-09-27T05:10:43.293Z,98782.72
2022-09-27T05:13:10.353Z,98780.22
2022-09-27T05:15:37.355Z,98774.78
2022-09-27T05:18:04.522Z,98780.00
2022-09-27T05:20:31.580Z,98776.44
2022-09-27T05:22:58.655Z,98780.16
2022-09-27T05:25:25.979Z,98780.78
2022-09-27T05:27:53.440Z,98785.41
2022-09-27T05:30:20.735Z,98783.00
2022-09-27T05:32:50.590Z,98785.28
2022-09-27T05:35:19.229Z,98781.44
2022-09-27T05:38:00.857Z,98793.44
2022-09-27T05:40:40.761Z,98789.09
2022-09-27T05:43:08.641Z,98788.31
2022-09-27T05:45:35.778Z,98792.72
2022-09-27T05:48:06.148Z,98794.44
2022-09-27T05:50:33.406Z,98792.88
2022-09-27T05:53:00.395Z,98792.22
2022-09-27T05:55:27.764Z,98785.09
2022-09-27T05:58:01.099Z,98795.91
2022-09-27T06:00:29.620Z,98795.19
2022-09-27T06:03:06.238Z,98787.72
2022-09-27T06:05:38.374Z,98796.53
2022-09-27T06:08:13.194Z,98792.03
2022-09-27T06:10:41.563Z,98784.16
2022-09-27T06:13:15.297Z,98782.53
2022-09-27T06:15:45.417Z,98779.88
2022-09-27T06:18:18.068Z,98789.03
2022-09-27T06:20:46.943Z,98784.47
2022-09-27T06:23:19.040Z,98784.13
2022-09-27T06:25:49.920Z,98787.38
2022-09-27T06:28:18.495Z,98779.66
2022-09-27T06:30:49.463Z,98778.47
2022-09-27T06:33:20.457Z,98785.78
2022-09-27T06:35:49.334Z,98785.72
2022-09-27T06:38:18.585Z,98785.28
2022-09-27T06:40:46.478Z,98787.22
2022-09-27T06:43:20.550Z,98785.44
2022-09-27T06:45:51.251Z,98788.97
2022-09-27T06:48:18.310Z,98787.25
2022-09-27T06:50:52.049Z,98789.59
2022-09-27T06:53:19.135Z,98786.34
2022-09-27T06:55:46.111Z,98792.50
2022-09-27T06:58:31.782Z,98790.84
2022-09-27T07:00:59.125Z,98798.44
2022-09-27T07:03:35.554Z,98796.09
2022-09-27T07:06:07.826Z,98782.19
2022-09-27T07:08:35.839Z,98794.25
2022-09-27T07:11:08.076Z,98793.44
2022-09-27T07:13:40.205Z,98797.28
2022-09-27T07:16:07.845Z,98799.13
2022-09-27T07:18:35.006Z,98795.66
2022-09-27T07:21:02.068Z,98796.81
2022-09-27T07:23:30.379Z,98790.19
2022-09-27T07:26:04.204Z,98800.66
2022-09-27T07:28:32.134Z,98796.94
2022-09-27T07:30:59.226Z,98799.84
2022-09-27T07:33:26.514Z,98801.00
2022-09-27T07:35:53.528Z,98803.88
2022-09-27T07:38:20.723Z,98795.31
2022-09-27T07:40:47.853Z,98797.75
2022-09-27T07:43:15.203Z,98800.44
2022-09-27T07:45:42.262Z,98796.22
2022-09-27T07:48:14.274Z,98796.16
2022-09-27T07:50:41.618Z,98795.75
2022-09-27T07:53:13.866Z,98788.44
2022-09-27T07:55:42.490Z,98787.50
2022-09-27T07:58:12.038Z,98792.38
2022-09-27T08:00:41.074Z,98789.00
2022-09-27T08:03:17.703Z,98784.47
2022-09-27T08:05:48.645Z,98792.63
2022-09-27T08:08:17.366Z,98795.75
2022-09-27T08:10:47.759Z,98787.72
2022-09-27T08:13:20.099Z,98796.06
2022-09-27T08:15:48.626Z,98797.56
2022-09-27T08:18:16.545Z,98794.28
2022-09-27T08:20:43.631Z,98793.63
2022-09-27T08:23:10.766Z,98798.22
2022-09-27T08:25:37.844Z,98798.75
2022-09-27T08:28:05.243Z,98797.28
2022-09-27T08:30:33.014Z,98798.88
2022-09-27T08:33:03.222Z,98805.91
2022-09-27T08:35:33.897Z,98807.06
2022-09-27T08:38:05.825Z,98795.50
2022-09-27T08:40:43.628Z,98791.94
2022-09-27T08:43:52.527Z,98796.00
2022-09-27T08:47:14.562Z,98798.59
2022-09-27T08:50:40.060Z,98802.00
2022-09-27T08:53:33.794Z,98807.38
2022-09-27T08:56:03.837Z,98804.84
2022-09-27T08:58:43.804Z,98797.19
2022-09-27T09:01:17.708Z,98801.44
2022-09-27T09:03:55.442Z,98810.00
2022-09-27T09:06:34.697Z,98811.03
2022-09-27T09:10:03.783Z,98802.41
2022-09-27T09:12:57.666Z,98804.28
2022-09-27T09:16:09.495Z,98815.28
2022-09-27T09:19:14.234Z,98806.81
2022-09-27T09:22:12.246Z,98799.94
2022-09-27T09:25:09.827Z,98805.78
2022-09-27T09:28:02.551Z,98803.78
2022-09-27T09:31:06.620Z,98796.16
2022-09-27T09:33:47.175Z,98792.47
2022-09-27T09:36:46.899Z,98796.44
2022-09-27T09:39:47.167Z,98794.56
2022-09-27T09:43:02.671Z,98794.50
2022-09-27T09:45:36.509Z,98801.13
2022-09-27T09:48:42.464Z,98789.22
2022-09-27T09:51:22.360Z,98793.13
2022-09-27T09:54:15.816Z,98792.13
2022-09-27T09:56:51.642Z,98794.84
2022-09-27T09:59:35.681Z,98799.81
2022-09-27T10:02:43.074Z,98797.47
2022-09-27T10:05:24.735Z,98793.41
2022-09-27T10:07:57.931Z,98784.53
2022-09-27T10:10:25.449Z,98790.13
2022-09-27T10:12:52.732Z,98781.00
2022-09-27T10:15:30.228Z,98781.44
2022-09-27T10:17:59.848Z,98776.72
2022-09-27T10:20:45.111Z,98781.44
2022-09-27T10:23:22.223Z,98784.06
2022-09-27T10:25:55.895Z,98777.31
2022-09-27T10:28:45.861Z,98775.34
2022-09-27T10:31:18.324Z,98775.03
2022-09-27T10:34:04.436Z,98774.91
2022-09-27T10:36:36.307Z,98779.56
2022-09-27T10:39:07.051Z,98777.53
2022-09-27T10:41:44.247Z,98776.19
2022-09-27T10:44:20.284Z,98773.84
2022-09-27T10:46:51.905Z,98770.94
2022-09-27T10:49:52.591Z,98759.78
2022-09-27T10:52:24.178Z,98768.00
2022-09-27T10:55:13.831Z,98774.75
2022-09-27T10:57:45.079Z,98776.75
2022-09-27T11:00:36.609Z,98780.91
2022-09-27T11:03:16.544Z,98771.59
2022-09-27T11:05:43.937Z,98776.91
2022-09-27T11:08:27.227Z,98770.38
2022-09-27T11:11:26.899Z,98775.31
2022-09-27T11:14:17.841Z,98770.31
2022-09-27T11:17:09.861Z,98763.22
2022-09-27T11:20:34.003Z,98769.22
2022-09-27T11:23:55.284Z,98761.41
2022-09-27T11:26:46.993Z,98765.66
2022-09-27T11:29:53.334Z,98765.53
2022-09-27T11:33:07.920Z,98762.53
2022-09-27T11:36:07.978Z,98757.91
2022-09-27T11:39:02.381Z,98758.66
2022-09-27T11:42:08.915Z,98756.84
2022-09-27T11:48:43.581Z,98763.53
2022-09-27T11:52:07.670Z,98783.59
2022-09-27T11:55:34.805Z,98774.03
2022-09-27T11:58:32.382Z,98769.06
2022-09-27T12:02:01.303Z,98774.56
2022-09-27T12:04:51.540Z,98774.91
2022-09-27T12:07:53.713Z,98771.94
2022-09-27T12:10:21.690Z,98768.31
2022-09-27T12:12:55.840Z,98773.56
2022-09-27T12:15:34.581Z,98789.88
2022-09-27T12:18:33.425Z,98798.91
2022-09-27T12:21:03.380Z,98812.50
2022-09-27T12:23:41.646Z,98816.63
2022-09-27T12:26:28.353Z,98817.63
2022-09-27T12:29:20.961Z,98821.16
2022-09-27T12:32:38.853Z,98827.16
2022-09-27T12:35:30.990Z,98825.91
2022-09-27T12:38:17.499Z,98836.75
2022-09-27T12:40:55.478Z,98843.47
2022-09-27T12:43:28.814Z,98841.44
2022-09-27T12:46:10.616Z,98841.25
2022-09-27T12:49:21.384Z,98839.75
2022-09-27T12:51:58.659Z,98845.19
2022-09-27T12:55:04.205Z,98840.34
2022-09-27T12:58:24.483Z,98829.56
2022-09-27T13:01:13.383Z,98834.31
2022-09-27T13:04:16.638Z,98822.91
2022-09-27T13:07:49.384Z,98826.09
2022-09-27T13:10:41.576Z,98822.81
2022-09-27T13:13:14.741Z,98821.25
2022-09-27T13:15:45.709Z,98831.06
2022-09-27T13:18:56.312Z,98829.09
2022-09-27T13:21:55.316Z,98831.28
2022-09-27T13:24:46.832Z,98836.44
2022-09-27T13:27:29.082Z,98837.31
2022-09-27T13:30:19.086Z,98835.09
2022-09-27T13:33:48.788Z,98830.16
2022-09-27T13:36:24.866Z,98836.06
2022-09-27T13:39:19.846Z,98831.06
2022-09-27T13:41:49.631Z,98837.22
2022-09-27T13:45:20.158Z,98843.25
2022-09-27T13:47:50.485Z,98835.91
2022-09-27T13:50:48.224Z,98845.16
2022-09-27T13:53:35.246Z,98845.78
2022-09-27T13:56:03.102Z,98848.31
2022-09-27T13:59:10.578Z,98847.38
2022-09-27T14:02:25.850Z,98845.94
2022-09-27T14:04:55.179Z,98840.97
2022-09-27T14:07:34.917Z,98844.38
2022-09-27T14:10:06.283Z,98847.28
2022-09-27T14:12:38.673Z,98859.91
2022-09-27T14:15:10.783Z,98843.13
2022-09-27T14:17:45.966Z,98853.91
2022-09-27T14:20:41.805Z,98855.41
2022-09-27T14:23:25.962Z,98863.16
2022-09-27T14:25:55.201Z,98855.28
2022-09-27T14:28:40.432Z,98867.34
2022-09-27T14:31:17.735Z,98864.75
2022-09-27T14:33:46.154Z,98863.84
2022-09-27T14:36:50.299Z,98862.34
2022-09-27T14:39:36.318Z,98871.13
2022-09-27T14:42:17.662Z,98869.94
2022-09-27T14:44:45.521Z,98869.94
2022-09-27T14:47:28.235Z,98876.34
2022-09-27T14:50:12.917Z,98875.03
2022-09-27T14:52:40.423Z,98877.28
2022-09-27T14:55:22.043Z,98879.53
2022-09-27T14:58:02.999Z,98884.03
2022-09-27T15:00:36.322Z,98886.66
2022-09-27T15:03:09.924Z,98889.06
2022-09-27T15:05:43.185Z,98898.19
2022-09-27T15:08:12.780Z,98896.50
2022-09-27T15:10:40.552Z,98903.81
2022-09-27T15:13:07.794Z,98903.88
2022-09-27T15:15:39.789Z,98902.41
2022-09-27T15:18:42.538Z,98911.47
2022-09-27T15:21:37.362Z,98918.19
2022-09-27T15:24:05.167Z,98917.03
2022-09-27T15:26:45.934Z,98918.66
2022-09-27T15:29:26.531Z,98919.47
2022-09-27T15:32:06.792Z,98911.91
2022-09-27T15:34:35.676Z,98921.28
2022-09-27T15:37:05.097Z,98925.44
2022-09-27T15:39:39.993Z,98926.81
2022-09-27T15:42:17.557Z,98928.59
2022-09-27T15:44:54.820Z,98930.09
2022-09-27T15:47:42.944Z,98923.81
2022-09-27T15:50:15.706Z,98922.22
2022-09-27T15:52:47.447Z,98928.94
2022-09-27T15:55:15.875Z,98925.41
2022-09-27T15:57:45.913Z,98926.63
2022-09-27T16:00:16.889Z,98923.84
2022-09-27T16:02:47.966Z,98928.84
2022-09-27T16:05:15.066Z,98931.22
2022-09-27T16:07:42.508Z,98939.25
2022-09-27T16:10:25.955Z,98942.66
2022-09-27T16:12:52.936Z,98938.53
2022-09-27T16:15:20.069Z,98938.41
2022-09-27T16:17:47.082Z,98944.09
2022-09-27T16:20:25.022Z,98944.47
2022-09-27T16:22:53.828Z,98950.31
2022-09-27T16:25:23.375Z,98946.94
2022-09-27T16:27:50.995Z,98954.69
2022-09-27T16:30:18.750Z,98954.41
2022-09-27T16:32:48.529Z,98951.09
2022-09-27T16:35:19.871Z,98951.44
2022-09-27T16:37:47.227Z,98955.06
2022-09-27T16:40:17.874Z,98965.56
2022-09-27T16:42:48.727Z,98968.22
2022-09-27T16:45:19.326Z,98967.59
2022-09-27T16:47:47.440Z,98977.25
2022-09-27T16:50:34.239Z,98973.34
2022-09-27T16:53:05.158Z,98975.34
2022-09-27T16:55:32.327Z,98980.75
2022-09-27T16:57:59.990Z,98978.50
2022-09-27T17:00:27.658Z,98990.09
2022-09-27T17:02:54.877Z,98979.59
2022-09-27T17:05:23.051Z,98985.66
2022-09-27T17:07:52.863Z,98978.50
2022-09-27T17:10:23.839Z,98980.75
2022-09-27T17:12:51.115Z,98987.28
2022-09-27T17:15:18.525Z,98978.00
2022-09-27T17:17:50.117Z,98989.59
2022-09-27T17:20:17.577Z,98981.75
2022-09-27T17:22:44.615Z,98990.41
2022-09-27T17:25:11.617Z,98992.53
2022-09-27T17:27:38.662Z,98996.97
2022-09-27T17:30:06.950Z,99003.72
2022-09-27T17:32:34.806Z,99002.50
2022-09-27T17:35:02.576Z,99009.22
2022-09-27T17:37:29.873Z,99010.50
2022-09-27T17:39:57.570Z,99014.63
2022-09-27T17:42:25.518Z,99015.44
2022-09-27T17:44:52.749Z,99020.34
2022-09-27T17:47:38.626Z,99011.81
2022-09-27T17:50:24.636Z,99016.41
2022-09-27T17:52:57.311Z,99019.03
2022-09-27T17:55:24.921Z,99018.72
2022-09-27T17:57:52.344Z,99017.56
2022-09-27T18:00:20.704Z,99018.88
2022-09-27T18:02:48.529Z,99021.97
2022-09-27T18:05:15.765Z,99012.44
2022-09-27T18:07:42.829Z,99015.72
2022-09-27T18:10:09.942Z,99019.47
2022-09-27T18:12:39.421Z,99017.66
2022-09-27T18:15:08.031Z,99021.50
2022-09-27T18:17:36.345Z,99021.50
2022-09-27T18:20:05.316Z,99020.50
2022-09-27T18:22:32.297Z,99018.72
2022-09-27T18:25:00.907Z,99023.94
2022-09-27T18:27:28.840Z,99026.72
2022-09-27T18:29:55.846Z,99027.06
2022-09-27T18:32:22.860Z,99034.28
2022-09-27T18:34:49.849Z,99037.84
2022-09-27T18:37:16.810Z,99042.41
2022-09-27T18:39:43.822Z,99035.38
2022-09-27T18:42:10.814Z,99036.34
2022-09-27T18:44:37.856Z,99041.13
2022-09-27T18:47:04.848Z,99050.13
2022-09-27T18:49:34.237Z,99041.59
2022-09-27T18:52:02.529Z,99044.03
2022-09-27T18:54:29.556Z,99045.38
2022-09-27T18:56:56.529Z,99053.84
2022-09-27T18:59:24.031Z,99052.19
2022-09-27T19:01:51.546Z,99050.25
2022-09-27T19:04:25.729Z,99058.38
2022-09-27T19:06:56.782Z,99049.41
2022-09-27T19:09:26.699Z,99056.72
2022-09-27T19:11:53.817Z,99065.25
2022-09-27T19:14:22.655Z,99064.94
2022-09-27T19:16:50.771Z,99072.81
2022-09-27T19:19:19.502Z,99067.06
2022-09-27T19:21:47.735Z,99068.97
2022-09-27T19:24:16.240Z,99059.22
2022-09-27T19:26:43.555Z,99064.28
2022-09-27T19:29:11.513Z,99064.25
2022-09-27T19:31:38.696Z,99063.16
2022-09-27T19:34:05.725Z,99061.53
2022-09-27T19:36:32.794Z,99067.56
2022-09-27T19:39:00.307Z,99066.50
2022-09-27T19:41:27.365Z,99069.78
2022-09-27T19:43:56.534Z,99064.19
2022-09-27T19:46:25.551Z,99064.34
2022-09-27T19:48:53.727Z,99062.91
2022-09-27T19:51:25.089Z,99067.25
2022-09-27T19:53:53.594Z,99066.09
2022-09-27T19:56:22.067Z,99066.09
2022-09-27T19:58:49.474Z,99070.63
2022-09-27T20:01:25.907Z,99069.63
2022-09-27T20:03:55.792Z,99067.97
2022-09-27T20:06:23.096Z,99063.38
2022-09-27T20:08:50.282Z,99063.00
2022-09-27T20:11:23.280Z,99067.72
2022-09-27T20:13:53.047Z,99066.06
2022-09-27T20:16:24.027Z,99064.59
2022-09-27T20:18:55.366Z,99062.50
2022-09-27T20:21:34.018Z,99063.53
2022-09-27T20:24:04.529Z,99064.19
2022-09-27T20:26:34.510Z,99072.00
2022-09-27T20:29:03.368Z,99062.72
2022-09-27T20:31:36.786Z,99066.44
2022-09-27T20:34:06.844Z,99067.84
2022-09-27T20:36:41.372Z,99066.06
2022-09-27T20:39:15.342Z,99073.59
2022-09-27T20:41:46.310Z,99072.34
2022-09-27T20:44:19.755Z,99065.88
2022-09-27T20:46:48.165Z,99068.34
2022-09-27T20:49:18.582Z,99073.03
2022-09-27T20:51:51.308Z,99070.72
2022-09-27T20:54:18.586Z,99077.03
2022-09-27T20:56:48.590Z,99082.59
2022-09-27T20:59:22.619Z,99079.50
2022-09-27T21:01:52.263Z,99068.88
2022-09-27T21:04:21.319Z,99074.09
2022-09-27T21:06:48.350Z,99079.50
2022-09-27T21:09:19.409Z,99075.63
2022-09-27T21:11:48.995Z,99083.84
2022-09-27T21:14:16.201Z,99081.59
2022-09-27T21:16:43.334Z,99082.41
2022-09-27T21:19:10.616Z,99083.66
2022-09-27T21:21:37.602Z,99082.31
2022-09-27T21:24:05.169Z,99077.72
2022-09-27T21:26:33.654Z,99075.91
2022-09-27T21:29:06.413Z,99078.53
2022-09-27T21:31:34.160Z,99080.25
2022-09-27T21:34:04.005Z,99083.84
2022-09-27T21:36:35.558Z,99094.41
2022-09-27T21:39:04.269Z,99087.78
2022-09-27T21:41:31.367Z,99093.38
2022-09-27T21:43:58.456Z,99089.09
2022-09-27T21:46:28.646Z,99090.09
2022-09-27T21:49:00.121Z,99086.56
2022-09-27T21:51:40.446Z,99084.63
2022-09-27T21:54:15.099Z,99091.91
2022-09-27T21:56:44.087Z,99091.41
2022-09-27T21:59:15.542Z,99085.31
2022-09-27T22:01:45.634Z,99089.19
2022-09-27T22:04:13.212Z,99080.72
2022-09-27T22:06:40.583Z,99097.69
2022-09-27T22:09:16.613Z,99091.16
2022-09-27T22:11:44.681Z,99099.53
2022-09-27T22:14:13.006Z,99106.34
2022-09-27T22:16:40.042Z,99101.13
2022-09-27T22:19:07.881Z,99099.38
2022-09-27T22:21:38.676Z,99103.59
2022-09-27T22:24:18.261Z,99088.22
2022-09-27T22:26:52.803Z,99092.78
2022-09-27T22:29:20.411Z,99089.47
2022-09-27T22:31:47.975Z,99092.78
2022-09-27T22:34:28.633Z,99106.34
2022-09-27T22:37:00.771Z,99104.19
2022-09-27T22:39:28.857Z,99093.16
2022-09-27T22:41:56.139Z,99095.00
2022-09-27T22:44:23.441Z,99093.56
2022-09-27T22:46:50.390Z,99087.34
2022-09-27T22:49:17.479Z,99090.25
2022-09-27T22:51:44.579Z,99083.22
2022-09-27T22:54:11.522Z,99082.94
2022-09-27T22:56:38.514Z,99092.84
2022-09-27T22:59:05.538Z,99089.28
2022-09-27T23:01:32.621Z,99082.16
2022-09-27T23:03:59.760Z,99085.66
2022-09-27T23:06:26.966Z,99087.63
2022-09-27T23:08:54.864Z,99082.16
2022-09-27T23:11:23.105Z,99086.44
2022-09-27T23:13:51.428Z,99087.88
2022-09-27T23:16:25.902Z,99087.50
2022-09-27T23:18:57.054Z,99090.63
2022-09-27T23:21:26.172Z,99086.03
2022-09-27T23:23:56.610Z,99084.38
2022-09-27T23:26:26.822Z,99089.88
2022-09-27T23:28:56.767Z,99086.25
2022-09-27T23:31:25.417Z,99089.81
2022-09-27T23:33:54.503Z,99087.38
2022-09-27T23:36:26.686Z,99095.56
2022-09-27T23:38:58.078Z,99092.50
2022-09-27T23:41:25.053Z,99085.84
2022-09-27T23:43:53.294Z,99092.72
2022-09-27T23:46:21.121Z,99086.84
2022-09-27T23:48:48.676Z,99087.63
2022-09-27T23:51:15.718Z,99096.66
2022-09-27T23:53:42.890Z,99103.53
2022-09-27T23:56:15.622Z,99095.47
2022-09-27T23:58:45.581Z,99087.00
